sensor_id;sensor_type;location;lat;lon;timestamp;P1;durP1;ratioP1;P2;durP2;ratioP2
19030;SDS011;9648;51.130;13.978;2023-03-01T00:00:51;49.88;;;27.88;;
19030;SDS011;9648;51.130;13.978;2023-03-01T00:03:18;48.33;;;27.05;;
19030;SDS011;9648;51.130;13.978;2023-03-01T00:05:45;43.33;;;26.48;;
19030;SDS011;9648;51.130;13.978;2023-03-01T00:08:14;41.40;;;26.17;;
19030;SDS011;9648;51.130;13.978;2023-03-01T00:10:40;44.22;;;27.00;;
19030;SDS011;9648;51.130;13.978;2023-03-01T00:13:07;48.05;;;28.48;;
19030;SDS011;9648;51.130;13.978;2023-03-01T00:15:37;44.05;;;27.10;;
19030;SDS011;9648;51.130;13.978;2023-03-01T00:18:05;47.30;;;28.50;;
19030;SDS011;9648;51.130;13.978;2023-03-01T00:20:32;46.13;;;27.13;;
19030;SDS011;9648;51.130;13.978;2023-03-01T00:22:59;47.72;;;27.60;;
19030;SDS011;9648;51.130;13.978;2023-03-01T00:25:27;44.35;;;27.13;;
19030;SDS011;9648;51.130;13.978;2023-03-01T00:27:53;40.78;;;25.45;;
19030;SDS011;9648;51.130;13.978;2023-03-01T00:30:20;42.03;;;25.92;;
19030;SDS011;9648;51.130;13.978;2023-03-01T00:32:47;43.85;;;26.70;;
19030;SDS011;9648;51.130;13.978;2023-03-01T00:35:13;43.60;;;26.67;;
19030;SDS011;9648;51.130;13.978;2023-03-01T00:37:40;44.08;;;26.20;;
19030;SDS011;9648;51.130;13.978;2023-03-01T00:40:07;42.45;;;25.88;;
19030;SDS011;9648;51.130;13.978;2023-03-01T00:42:36;41.65;;;26.42;;
19030;SDS011;9648;51.130;13.978;2023-03-01T00:45:03;42.22;;;25.80;;
19030;SDS011;9648;51.130;13.978;2023-03-01T00:47:32;38.77;;;25.17;;
19030;SDS011;9648;51.130;13.978;2023-03-01T00:49:59;40.78;;;24.98;;
19030;SDS011;9648;51.130;13.978;2023-03-01T00:52:26;41.38;;;24.60;;
19030;SDS011;9648;51.130;13.978;2023-03-01T00:54:53;42.78;;;24.58;;
19030;SDS011;9648;51.130;13.978;2023-03-01T00:57:19;39.57;;;23.77;;
19030;SDS011;9648;51.130;13.978;2023-03-01T00:59:48;34.08;;;21.70;;
19030;SDS011;9648;51.130;13.978;2023-03-01T01:02:14;35.33;;;22.08;;
19030;SDS011;9648;51.130;13.978;2023-03-01T01:04:41;33.25;;;20.35;;
19030;SDS011;9648;51.130;13.978;2023-03-01T01:07:08;31.50;;;19.60;;
19030;SDS011;9648;51.130;13.978;2023-03-01T01:09:34;33.58;;;20.05;;
19030;SDS011;9648;51.130;13.978;2023-03-01T01:12:02;31.02;;;19.20;;
19030;SDS011;9648;51.130;13.978;2023-03-01T01:14:29;33.80;;;20.33;;
19030;SDS011;9648;51.130;13.978;2023-03-01T01:16:57;33.28;;;20.92;;
19030;SDS011;9648;51.130;13.978;2023-03-01T01:19:24;32.70;;;20.80;;
19030;SDS011;9648;51.130;13.978;2023-03-01T01:21:52;33.17;;;20.80;;
19030;SDS011;9648;51.130;13.978;2023-03-01T01:24:19;30.27;;;20.05;;
19030;SDS011;9648;51.130;13.978;2023-03-01T01:26:46;32.15;;;20.73;;
19030;SDS011;9648;51.130;13.978;2023-03-01T01:29:15;36.55;;;22.45;;
19030;SDS011;9648;51.130;13.978;2023-03-01T01:31:42;33.50;;;21.93;;
19030;SDS011;9648;51.130;13.978;2023-03-01T01:34:13;34.25;;;21.00;;
19030;SDS011;9648;51.130;13.978;2023-03-01T01:36:41;34.78;;;21.05;;
19030;SDS011;9648;51.130;13.978;2023-03-01T01:39:08;33.67;;;21.73;;
19030;SDS011;9648;51.130;13.978;2023-03-01T01:41:38;34.60;;;21.00;;
19030;SDS011;9648;51.130;13.978;2023-03-01T01:44:14;35.50;;;20.83;;
19030;SDS011;9648;51.130;13.978;2023-03-01T01:46:53;35.38;;;21.70;;
19030;SDS011;9648;51.130;13.978;2023-03-01T01:49:28;36.42;;;21.75;;
19030;SDS011;9648;51.130;13.978;2023-03-01T01:52:03;36.05;;;22.00;;
19030;SDS011;9648;51.130;13.978;2023-03-01T01:54:38;33.33;;;21.40;;
19030;SDS011;9648;51.130;13.978;2023-03-01T01:57:11;34.67;;;22.17;;
19030;SDS011;9648;51.130;13.978;2023-03-01T01:59:41;35.30;;;21.58;;
19030;SDS011;9648;51.130;13.978;2023-03-01T02:02:11;35.70;;;22.20;;
19030;SDS011;9648;51.130;13.978;2023-03-01T02:04:40;37.65;;;22.65;;
19030;SDS011;9648;51.130;13.978;2023-03-01T02:07:09;37.85;;;21.55;;
19030;SDS011;9648;51.130;13.978;2023-03-01T02:09:40;31.02;;;20.05;;
19030;SDS011;9648;51.130;13.978;2023-03-01T02:12:13;34.65;;;21.63;;
19030;SDS011;9648;51.130;13.978;2023-03-01T02:14:44;32.63;;;20.20;;
19030;SDS011;9648;51.130;13.978;2023-03-01T02:17:11;33.97;;;20.33;;
19030;SDS011;9648;51.130;13.978;2023-03-01T02:19:43;35.22;;;20.13;;
19030;SDS011;9648;51.130;13.978;2023-03-01T02:22:22;32.78;;;20.45;;
19030;SDS011;9648;51.130;13.978;2023-03-01T02:24:53;30.17;;;19.55;;
19030;SDS011;9648;51.130;13.978;2023-03-01T02:27:30;34.25;;;20.25;;
19030;SDS011;9648;51.130;13.978;2023-03-01T02:30:04;33.83;;;20.15;;
19030;SDS011;9648;51.130;13.978;2023-03-01T02:32:33;33.42;;;20.77;;
19030;SDS011;9648;51.130;13.978;2023-03-01T02:34:59;34.47;;;20.63;;
19030;SDS011;9648;51.130;13.978;2023-03-01T02:37:26;37.92;;;21.23;;
19030;SDS011;9648;51.130;13.978;2023-03-01T02:39:57;36.10;;;20.35;;
19030;SDS011;9648;51.130;13.978;2023-03-01T02:42:26;30.50;;;19.80;;
19030;SDS011;9648;51.130;13.978;2023-03-01T02:44:57;33.17;;;19.23;;
19030;SDS011;9648;51.130;13.978;2023-03-01T02:47:25;30.83;;;19.00;;
19030;SDS011;9648;51.130;13.978;2023-03-01T02:49:52;32.67;;;19.93;;
19030;SDS011;9648;51.130;13.978;2023-03-01T02:52:26;32.33;;;20.15;;
19030;SDS011;9648;51.130;13.978;2023-03-01T02:55:04;35.53;;;20.07;;
19030;SDS011;9648;51.130;13.978;2023-03-01T02:57:36;35.70;;;20.73;;
19030;SDS011;9648;51.130;13.978;2023-03-01T03:00:07;39.10;;;20.48;;
19030;SDS011;9648;51.130;13.978;2023-03-01T03:02:45;31.43;;;19.37;;
19030;SDS011;9648;51.130;13.978;2023-03-01T03:05:13;30.55;;;19.52;;
19030;SDS011;9648;51.130;13.978;2023-03-01T03:07:42;30.02;;;18.77;;
19030;SDS011;9648;51.130;13.978;2023-03-01T03:10:12;35.10;;;19.45;;
19030;SDS011;9648;51.130;13.978;2023-03-01T03:12:40;29.05;;;18.92;;
19030;SDS011;9648;51.130;13.978;2023-03-01T03:15:09;29.45;;;18.17;;
19030;SDS011;9648;51.130;13.978;2023-03-01T03:17:37;31.13;;;18.27;;
19030;SDS011;9648;51.130;13.978;2023-03-01T03:20:09;28.80;;;18.00;;
19030;SDS011;9648;51.130;13.978;2023-03-01T03:22:38;32.45;;;18.70;;
19030;SDS011;9648;51.130;13.978;2023-03-01T03:25:06;32.63;;;19.13;;
19030;SDS011;9648;51.130;13.978;2023-03-01T03:27:35;29.63;;;18.00;;
19030;SDS011;9648;51.130;13.978;2023-03-01T03:30:03;28.87;;;17.70;;
19030;SDS011;9648;51.130;13.978;2023-03-01T03:32:34;32.42;;;19.02;;
19030;SDS011;9648;51.130;13.978;2023-03-01T03:35:01;32.13;;;18.30;;
19030;SDS011;9648;51.130;13.978;2023-03-01T03:37:35;31.43;;;18.13;;
19030;SDS011;9648;51.130;13.978;2023-03-01T03:40:20;30.13;;;18.23;;
19030;SDS011;9648;51.130;13.978;2023-03-01T03:42:47;30.48;;;17.60;;
19030;SDS011;9648;51.130;13.978;2023-03-01T03:45:14;30.90;;;18.58;;
19030;SDS011;9648;51.130;13.978;2023-03-01T03:47:41;32.20;;;18.40;;
19030;SDS011;9648;51.130;13.978;2023-03-01T03:50:08;33.38;;;18.17;;
19030;SDS011;9648;51.130;13.978;2023-03-01T03:52:37;34.67;;;19.55;;
19030;SDS011;9648;51.130;13.978;2023-03-01T03:55:04;30.77;;;17.80;;
19030;SDS011;9648;51.130;13.978;2023-03-01T03:57:35;31.10;;;17.87;;
19030;SDS011;9648;51.130;13.978;2023-03-01T04:00:02;31.90;;;18.13;;
19030;SDS011;9648;51.130;13.978;2023-03-01T04:02:30;29.93;;;17.83;;
19030;SDS011;9648;51.130;13.978;2023-03-01T04:04:57;30.27;;;17.70;;
19030;SDS011;9648;51.130;13.978;2023-03-01T04:07:24;34.28;;;18.25;;
19030;SDS011;9648;51.130;13.978;2023-03-01T04:09:52;28.77;;;17.93;;
19030;SDS011;9648;51.130;13.978;2023-03-01T04:12:19;39.67;;;20.67;;
19030;SDS011;9648;51.130;13.978;2023-03-01T04:14:48;40.80;;;22.40;;
19030;SDS011;9648;51.130;13.978;2023-03-01T04:17:14;38.53;;;21.90;;
19030;SDS011;9648;51.130;13.978;2023-03-01T04:19:41;38.67;;;21.92;;
19030;SDS011;9648;51.130;13.978;2023-03-01T04:22:09;36.10;;;20.45;;
19030;SDS011;9648;51.130;13.978;2023-03-01T04:24:45;40.17;;;22.50;;
19030;SDS011;9648;51.130;13.978;2023-03-01T04:27:13;50.40;;;26.50;;
19030;SDS011;9648;51.130;13.978;2023-03-01T04:29:40;64.25;;;32.65;;
19030;SDS011;9648;51.130;13.978;2023-03-01T04:32:07;116.00;;;53.33;;
19030;SDS011;9648;51.130;13.978;2023-03-01T04:34:33;83.50;;;41.75;;
19030;SDS011;9648;51.130;13.978;2023-03-01T04:37:00;110.07;;;50.95;;
19030;SDS011;9648;51.130;13.978;2023-03-01T04:39:27;99.27;;;48.33;;
19030;SDS011;9648;51.130;13.978;2023-03-01T04:41:53;80.18;;;39.75;;
19030;SDS011;9648;51.130;13.978;2023-03-01T04:44:21;73.22;;;35.60;;
19030;SDS011;9648;51.130;13.978;2023-03-01T04:46:48;66.20;;;34.80;;
19030;SDS011;9648;51.130;13.978;2023-03-01T04:49:15;74.65;;;38.17;;
19030;SDS011;9648;51.130;13.978;2023-03-01T04:51:42;96.25;;;45.65;;
19030;SDS011;9648;51.130;13.978;2023-03-01T04:54:09;84.53;;;42.60;;
19030;SDS011;9648;51.130;13.978;2023-03-01T04:56:35;71.97;;;38.13;;
19030;SDS011;9648;51.130;13.978;2023-03-01T04:59:02;74.25;;;36.92;;
19030;SDS011;9648;51.130;13.978;2023-03-01T05:01:32;61.42;;;32.55;;
19030;SDS011;9648;51.130;13.978;2023-03-01T05:04:00;64.28;;;34.05;;
19030;SDS011;9648;51.130;13.978;2023-03-01T05:06:30;77.95;;;39.88;;
19030;SDS011;9648;51.130;13.978;2023-03-01T05:08:57;73.47;;;38.20;;
19030;SDS011;9648;51.130;13.978;2023-03-01T05:11:24;58.20;;;31.73;;
19030;SDS011;9648;51.130;13.978;2023-03-01T05:13:53;54.00;;;29.45;;
19030;SDS011;9648;51.130;13.978;2023-03-01T05:16:20;59.83;;;31.08;;
19030;SDS011;9648;51.130;13.978;2023-03-01T05:18:48;50.53;;;28.17;;
19030;SDS011;9648;51.130;13.978;2023-03-01T05:21:16;54.53;;;28.70;;
19030;SDS011;9648;51.130;13.978;2023-03-01T05:23:43;49.45;;;27.60;;
19030;SDS011;9648;51.130;13.978;2023-03-01T05:26:12;47.83;;;25.80;;
19030;SDS011;9648;51.130;13.978;2023-03-01T05:28:39;41.27;;;22.47;;
19030;SDS011;9648;51.130;13.978;2023-03-01T05:31:06;38.38;;;20.88;;
19030;SDS011;9648;51.130;13.978;2023-03-01T05:33:35;37.85;;;21.02;;
19030;SDS011;9648;51.130;13.978;2023-03-01T05:36:04;35.50;;;20.47;;
19030;SDS011;9648;51.130;13.978;2023-03-01T05:38:32;35.70;;;20.88;;
19030;SDS011;9648;51.130;13.978;2023-03-01T05:40:59;36.60;;;20.65;;
19030;SDS011;9648;51.130;13.978;2023-03-01T05:43:26;36.33;;;19.83;;
19030;SDS011;9648;51.130;13.978;2023-03-01T05:45:58;33.70;;;19.48;;
19030;SDS011;9648;51.130;13.978;2023-03-01T05:48:25;36.38;;;20.48;;
19030;SDS011;9648;51.130;13.978;2023-03-01T05:50:52;33.47;;;19.92;;
19030;SDS011;9648;51.130;13.978;2023-03-01T05:53:20;32.78;;;18.90;;
19030;SDS011;9648;51.130;13.978;2023-03-01T05:55:47;30.77;;;18.75;;
19030;SDS011;9648;51.130;13.978;2023-03-01T05:58:15;33.40;;;19.00;;
19030;SDS011;9648;51.130;13.978;2023-03-01T06:00:44;33.50;;;19.77;;
19030;SDS011;9648;51.130;13.978;2023-03-01T06:03:13;33.08;;;19.35;;
19030;SDS011;9648;51.130;13.978;2023-03-01T06:05:40;32.20;;;19.45;;
19030;SDS011;9648;51.130;13.978;2023-03-01T06:08:08;36.00;;;21.25;;
19030;SDS011;9648;51.130;13.978;2023-03-01T06:10:37;36.17;;;21.98;;
19030;SDS011;9648;51.130;13.978;2023-03-01T06:13:04;38.53;;;21.40;;
19030;SDS011;9648;51.130;13.978;2023-03-01T06:15:31;36.17;;;21.77;;
19030;SDS011;9648;51.130;13.978;2023-03-01T06:17:58;34.95;;;20.38;;
19030;SDS011;9648;51.130;13.978;2023-03-01T06:20:28;35.08;;;20.63;;
19030;SDS011;9648;51.130;13.978;2023-03-01T06:22:55;37.25;;;21.17;;
19030;SDS011;9648;51.130;13.978;2023-03-01T06:25:26;34.50;;;20.75;;
19030;SDS011;9648;51.130;13.978;2023-03-01T06:27:54;34.42;;;21.50;;
19030;SDS011;9648;51.130;13.978;2023-03-01T06:30:22;36.28;;;21.00;;
19030;SDS011;9648;51.130;13.978;2023-03-01T06:32:50;35.00;;;21.88;;
19030;SDS011;9648;51.130;13.978;2023-03-01T06:35:17;36.13;;;21.97;;
19030;SDS011;9648;51.130;13.978;2023-03-01T06:37:45;36.30;;;21.37;;
19030;SDS011;9648;51.130;13.978;2023-03-01T06:40:12;37.65;;;22.42;;
19030;SDS011;9648;51.130;13.978;2023-03-01T06:42:42;39.30;;;23.58;;
19030;SDS011;9648;51.130;13.978;2023-03-01T06:45:15;44.63;;;24.90;;
19030;SDS011;9648;51.130;13.978;2023-03-01T06:47:42;39.28;;;23.80;;
19030;SDS011;9648;51.130;13.978;2023-03-01T06:50:09;39.03;;;24.17;;
19030;SDS011;9648;51.130;13.978;2023-03-01T06:52:37;43.90;;;25.75;;
19030;SDS011;9648;51.130;13.978;2023-03-01T06:55:04;42.55;;;23.85;;
19030;SDS011;9648;51.130;13.978;2023-03-01T06:57:31;38.58;;;23.88;;
19030;SDS011;9648;51.130;13.978;2023-03-01T06:59:58;44.83;;;26.30;;
19030;SDS011;9648;51.130;13.978;2023-03-01T07:02:26;45.08;;;25.60;;
19030;SDS011;9648;51.130;13.978;2023-03-01T07:04:53;40.40;;;24.90;;
19030;SDS011;9648;51.130;13.978;2023-03-01T07:07:20;35.95;;;22.48;;
19030;SDS011;9648;51.130;13.978;2023-03-01T07:09:48;34.17;;;21.48;;
19030;SDS011;9648;51.130;13.978;2023-03-01T07:12:15;37.40;;;23.00;;
19030;SDS011;9648;51.130;13.978;2023-03-01T07:14:43;34.50;;;22.65;;
19030;SDS011;9648;51.130;13.978;2023-03-01T07:17:10;37.15;;;23.30;;
19030;SDS011;9648;51.130;13.978;2023-03-01T07:19:38;36.15;;;22.55;;
19030;SDS011;9648;51.130;13.978;2023-03-01T07:22:05;38.40;;;23.20;;
19030;SDS011;9648;51.130;13.978;2023-03-01T07:24:33;39.70;;;24.07;;
19030;SDS011;9648;51.130;13.978;2023-03-01T07:26:59;39.83;;;23.67;;
19030;SDS011;9648;51.130;13.978;2023-03-01T07:29:26;41.53;;;24.10;;
19030;SDS011;9648;51.130;13.978;2023-03-01T07:31:53;41.53;;;24.38;;
19030;SDS011;9648;51.130;13.978;2023-03-01T07:34:20;40.08;;;25.77;;
19030;SDS011;9648;51.130;13.978;2023-03-01T07:36:48;43.42;;;26.95;;
19030;SDS011;9648;51.130;13.978;2023-03-01T07:39:15;43.58;;;27.02;;
19030;SDS011;9648;51.130;13.978;2023-03-01T07:41:41;39.45;;;25.60;;
19030;SDS011;9648;51.130;13.978;2023-03-01T07:44:08;46.30;;;29.88;;
19030;SDS011;9648;51.130;13.978;2023-03-01T07:46:35;46.25;;;29.02;;
19030;SDS011;9648;51.130;13.978;2023-03-01T07:49:02;46.17;;;28.93;;
19030;SDS011;9648;51.130;13.978;2023-03-01T07:51:29;47.75;;;28.98;;
19030;SDS011;9648;51.130;13.978;2023-03-01T07:53:57;50.17;;;31.13;;
19030;SDS011;9648;51.130;13.978;2023-03-01T07:56:24;46.30;;;29.80;;
19030;SDS011;9648;51.130;13.978;2023-03-01T07:58:51;44.35;;;28.38;;
19030;SDS011;9648;51.130;13.978;2023-03-01T08:01:18;45.97;;;27.88;;
19030;SDS011;9648;51.130;13.978;2023-03-01T08:03:46;46.10;;;29.13;;
19030;SDS011;9648;51.130;13.978;2023-03-01T08:06:14;47.58;;;29.70;;
19030;SDS011;9648;51.130;13.978;2023-03-01T08:08:42;45.43;;;28.53;;
19030;SDS011;9648;51.130;13.978;2023-03-01T08:11:14;41.38;;;25.55;;
19030;SDS011;9648;51.130;13.978;2023-03-01T08:13:41;39.72;;;25.35;;
19030;SDS011;9648;51.130;13.978;2023-03-01T08:16:09;43.20;;;27.00;;
19030;SDS011;9648;51.130;13.978;2023-03-01T08:18:38;42.60;;;27.45;;
19030;SDS011;9648;51.130;13.978;2023-03-01T08:21:05;39.93;;;25.47;;
19030;SDS011;9648;51.130;13.978;2023-03-01T08:23:33;44.38;;;27.65;;
19030;SDS011;9648;51.130;13.978;2023-03-01T08:26:04;43.47;;;28.65;;
19030;SDS011;9648;51.130;13.978;2023-03-01T08:28:33;48.05;;;30.83;;
19030;SDS011;9648;51.130;13.978;2023-03-01T08:31:00;45.63;;;28.33;;
19030;SDS011;9648;51.130;13.978;2023-03-01T08:33:28;47.17;;;28.92;;
19030;SDS011;9648;51.130;13.978;2023-03-01T08:36:01;44.30;;;28.58;;
19030;SDS011;9648;51.130;13.978;2023-03-01T08:38:29;43.38;;;27.77;;
19030;SDS011;9648;51.130;13.978;2023-03-01T08:40:58;44.83;;;27.25;;
19030;SDS011;9648;51.130;13.978;2023-03-01T08:43:26;43.63;;;27.47;;
19030;SDS011;9648;51.130;13.978;2023-03-01T08:45:54;47.53;;;28.83;;
19030;SDS011;9648;51.130;13.978;2023-03-01T08:48:21;42.15;;;26.75;;
19030;SDS011;9648;51.130;13.978;2023-03-01T08:50:47;40.88;;;25.75;;
19030;SDS011;9648;51.130;13.978;2023-03-01T08:53:14;66.03;;;34.47;;
19030;SDS011;9648;51.130;13.978;2023-03-01T08:55:41;41.50;;;26.35;;
19030;SDS011;9648;51.130;13.978;2023-03-01T08:58:07;41.35;;;26.08;;
19030;SDS011;9648;51.130;13.978;2023-03-01T09:00:34;41.10;;;25.65;;
19030;SDS011;9648;51.130;13.978;2023-03-01T09:03:02;44.22;;;27.35;;
19030;SDS011;9648;51.130;13.978;2023-03-01T09:05:31;37.55;;;24.60;;
19030;SDS011;9648;51.130;13.978;2023-03-01T09:08:01;40.28;;;24.65;;
19030;SDS011;9648;51.130;13.978;2023-03-01T09:10:27;36.00;;;23.37;;
19030;SDS011;9648;51.130;13.978;2023-03-01T09:12:54;35.90;;;22.77;;
19030;SDS011;9648;51.130;13.978;2023-03-01T09:15:20;33.30;;;22.47;;
19030;SDS011;9648;51.130;13.978;2023-03-01T09:17:47;32.83;;;21.58;;
19030;SDS011;9648;51.130;13.978;2023-03-01T09:20:15;37.20;;;23.15;;
19030;SDS011;9648;51.130;13.978;2023-03-01T09:22:42;31.98;;;21.30;;
19030;SDS011;9648;51.130;13.978;2023-03-01T09:25:09;30.30;;;19.98;;
19030;SDS011;9648;51.130;13.978;2023-03-01T09:27:35;32.78;;;21.38;;
19030;SDS011;9648;51.130;13.978;2023-03-01T09:30:02;33.90;;;20.90;;
19030;SDS011;9648;51.130;13.978;2023-03-01T09:32:30;33.45;;;20.63;;
19030;SDS011;9648;51.130;13.978;2023-03-01T09:34:56;35.20;;;21.40;;
19030;SDS011;9648;51.130;13.978;2023-03-01T09:37:34;30.80;;;20.00;;
19030;SDS011;9648;51.130;13.978;2023-03-01T09:40:02;30.73;;;19.30;;
19030;SDS011;9648;51.130;13.978;2023-03-01T09:42:31;37.15;;;21.67;;
19030;SDS011;9648;51.130;13.978;2023-03-01T09:45:00;52.00;;;21.77;;
19030;SDS011;9648;51.130;13.978;2023-03-01T09:47:30;29.52;;;19.65;;
19030;SDS011;9648;51.130;13.978;2023-03-01T09:50:01;31.80;;;19.48;;
19030;SDS011;9648;51.130;13.978;2023-03-01T09:52:36;59.88;;;39.17;;
19030;SDS011;9648;51.130;13.978;2023-03-01T09:55:08;33.50;;;19.92;;
19030;SDS011;9648;51.130;13.978;2023-03-01T09:57:39;33.75;;;20.02;;
19030;SDS011;9648;51.130;13.978;2023-03-01T10:00:18;32.13;;;20.20;;
19030;SDS011;9648;51.130;13.978;2023-03-01T10:02:52;32.47;;;20.27;;
19030;SDS011;9648;51.130;13.978;2023-03-01T10:05:29;31.35;;;20.77;;
19030;SDS011;9648;51.130;13.978;2023-03-01T10:08:06;34.78;;;21.08;;
19030;SDS011;9648;51.130;13.978;2023-03-01T10:10:50;31.35;;;20.65;;
19030;SDS011;9648;51.130;13.978;2023-03-01T10:13:19;30.75;;;20.73;;
19030;SDS011;9648;51.130;13.978;2023-03-01T10:15:50;30.88;;;20.48;;
19030;SDS011;9648;51.130;13.978;2023-03-01T10:18:21;34.30;;;21.65;;
19030;SDS011;9648;51.130;13.978;2023-03-01T10:20:52;31.13;;;21.05;;
19030;SDS011;9648;51.130;13.978;2023-03-01T10:23:23;30.13;;;20.23;;
19030;SDS011;9648;51.130;13.978;2023-03-01T10:25:56;31.85;;;20.35;;
19030;SDS011;9648;51.130;13.978;2023-03-01T10:28:39;32.03;;;20.33;;
19030;SDS011;9648;51.130;13.978;2023-03-01T10:31:12;29.17;;;18.90;;
19030;SDS011;9648;51.130;13.978;2023-03-01T10:33:41;31.17;;;21.02;;
19030;SDS011;9648;51.130;13.978;2023-03-01T10:36:08;32.70;;;20.95;;
19030;SDS011;9648;51.130;13.978;2023-03-01T10:38:48;29.13;;;19.23;;
19030;SDS011;9648;51.130;13.978;2023-03-01T10:41:19;29.13;;;19.42;;
19030;SDS011;9648;51.130;13.978;2023-03-01T10:43:49;30.25;;;19.50;;
19030;SDS011;9648;51.130;13.978;2023-03-01T10:46:26;29.77;;;18.73;;
19030;SDS011;9648;51.130;13.978;2023-03-01T10:49:05;29.38;;;18.63;;
19030;SDS011;9648;51.130;13.978;2023-03-01T10:51:33;30.67;;;19.50;;
19030;SDS011;9648;51.130;13.978;2023-03-01T10:54:01;29.02;;;18.40;;
19030;SDS011;9648;51.130;13.978;2023-03-01T10:56:30;28.85;;;18.40;;
19030;SDS011;9648;51.130;13.978;2023-03-01T10:59:19;32.23;;;18.57;;
19030;SDS011;9648;51.130;13.978;2023-03-01T11:02:15;29.08;;;18.63;;
19030;SDS011;9648;51.130;13.978;2023-03-01T11:04:56;30.25;;;20.10;;
19030;SDS011;9648;51.130;13.978;2023-03-01T11:07:27;29.13;;;18.30;;
19030;SDS011;9648;51.130;13.978;2023-03-01T11:09:56;34.47;;;21.83;;
19030;SDS011;9648;51.130;13.978;2023-03-01T11:12:22;32.13;;;20.17;;
19030;SDS011;9648;51.130;13.978;2023-03-01T11:14:51;29.98;;;19.88;;
19030;SDS011;9648;51.130;13.978;2023-03-01T11:17:21;31.48;;;20.40;;
19030;SDS011;9648;51.130;13.978;2023-03-01T11:20:01;32.85;;;21.88;;
19030;SDS011;9648;51.130;13.978;2023-03-01T11:22:32;29.10;;;19.48;;
19030;SDS011;9648;51.130;13.978;2023-03-01T11:25:03;30.35;;;19.38;;
19030;SDS011;9648;51.130;13.978;2023-03-01T11:27:30;32.53;;;21.00;;
19030;SDS011;9648;51.130;13.978;2023-03-01T11:29:59;34.25;;;20.90;;
19030;SDS011;9648;51.130;13.978;2023-03-01T11:32:32;34.85;;;22.60;;
19030;SDS011;9648;51.130;13.978;2023-03-01T11:35:03;36.30;;;21.20;;
19030;SDS011;9648;51.130;13.978;2023-03-01T11:37:37;35.67;;;22.50;;
19030;SDS011;9648;51.130;13.978;2023-03-01T11:40:23;35.05;;;22.50;;
19030;SDS011;9648;51.130;13.978;2023-03-01T11:42:56;31.55;;;21.02;;
19030;SDS011;9648;51.130;13.978;2023-03-01T11:45:34;33.58;;;21.00;;
19030;SDS011;9648;51.130;13.978;2023-03-01T11:48:20;29.95;;;20.08;;
19030;SDS011;9648;51.130;13.978;2023-03-01T11:50:57;29.40;;;20.02;;
19030;SDS011;9648;51.130;13.978;2023-03-01T11:53:38;29.95;;;19.92;;
19030;SDS011;9648;51.130;13.978;2023-03-01T11:56:21;32.50;;;20.13;;
19030;SDS011;9648;51.130;13.978;2023-03-01T11:59:03;29.38;;;19.75;;
19030;SDS011;9648;51.130;13.978;2023-03-01T12:02:18;31.08;;;20.73;;
19030;SDS011;9648;51.130;13.978;2023-03-01T12:05:02;31.85;;;20.67;;
19030;SDS011;9648;51.130;13.978;2023-03-01T12:07:46;33.10;;;20.38;;
19030;SDS011;9648;51.130;13.978;2023-03-01T12:10:20;33.53;;;20.60;;
19030;SDS011;9648;51.130;13.978;2023-03-01T12:12:55;33.78;;;20.92;;
19030;SDS011;9648;51.130;13.978;2023-03-01T12:21:30;34.40;;;21.65;;
19030;SDS011;9648;51.130;13.978;2023-03-01T12:24:10;32.20;;;20.92;;
19030;SDS011;9648;51.130;13.978;2023-03-01T12:27:06;29.60;;;20.02;;
19030;SDS011;9648;51.130;13.978;2023-03-01T12:29:48;30.60;;;20.55;;
19030;SDS011;9648;51.130;13.978;2023-03-01T12:32:32;34.60;;;22.35;;
19030;SDS011;9648;51.130;13.978;2023-03-01T12:35:13;34.35;;;22.45;;
19030;SDS011;9648;51.130;13.978;2023-03-01T12:38:03;31.48;;;19.88;;
19030;SDS011;9648;51.130;13.978;2023-03-01T12:40:43;30.17;;;20.17;;
19030;SDS011;9648;51.130;13.978;2023-03-01T12:43:28;32.53;;;20.20;;
19030;SDS011;9648;51.130;13.978;2023-03-01T12:46:18;32.45;;;21.63;;
19030;SDS011;9648;51.130;13.978;2023-03-01T12:48:55;34.30;;;20.90;;
19030;SDS011;9648;51.130;13.978;2023-03-01T12:51:31;31.77;;;21.20;;
19030;SDS011;9648;51.130;13.978;2023-03-01T12:54:01;34.72;;;21.05;;
19030;SDS011;9648;51.130;13.978;2023-03-01T12:56:36;32.03;;;20.60;;
19030;SDS011;9648;51.130;13.978;2023-03-01T12:59:07;31.55;;;20.42;;
19030;SDS011;9648;51.130;13.978;2023-03-01T13:01:42;33.00;;;20.95;;
19030;SDS011;9648;51.130;13.978;2023-03-01T13:04:21;31.45;;;20.38;;
19030;SDS011;9648;51.130;13.978;2023-03-01T13:07:04;31.95;;;20.95;;
19030;SDS011;9648;51.130;13.978;2023-03-01T13:09:47;32.30;;;21.17;;
19030;SDS011;9648;51.130;13.978;2023-03-01T13:15:24;29.30;;;18.88;;
19030;SDS011;9648;51.130;13.978;2023-03-01T13:17:57;31.92;;;20.00;;
19030;SDS011;9648;51.130;13.978;2023-03-01T13:20:26;30.38;;;20.23;;
19030;SDS011;9648;51.130;13.978;2023-03-01T13:23:02;34.70;;;20.27;;
19030;SDS011;9648;51.130;13.978;2023-03-01T13:25:31;32.85;;;20.65;;
19030;SDS011;9648;51.130;13.978;2023-03-01T13:31:03;29.95;;;19.35;;
19030;SDS011;9648;51.130;13.978;2023-03-01T13:33:43;28.83;;;19.63;;
19030;SDS011;9648;51.130;13.978;2023-03-01T13:36:11;31.92;;;19.90;;
19030;SDS011;9648;51.130;13.978;2023-03-01T13:39:26;33.25;;;21.25;;
19030;SDS011;9648;51.130;13.978;2023-03-01T13:41:57;28.65;;;19.40;;
19030;SDS011;9648;51.130;13.978;2023-03-01T13:44:25;30.13;;;20.58;;
19030;SDS011;9648;51.130;13.978;2023-03-01T13:46:57;30.63;;;19.85;;
19030;SDS011;9648;51.130;13.978;2023-03-01T13:49:32;29.88;;;19.48;;
19030;SDS011;9648;51.130;13.978;2023-03-01T13:52:14;29.98;;;19.27;;
19030;SDS011;9648;51.130;13.978;2023-03-01T13:54:57;29.48;;;18.65;;
19030;SDS011;9648;51.130;13.978;2023-03-01T13:57:28;28.92;;;18.85;;
19030;SDS011;9648;51.130;13.978;2023-03-01T13:59:59;28.92;;;18.50;;
19030;SDS011;9648;51.130;13.978;2023-03-01T14:02:26;28.00;;;18.00;;
19030;SDS011;9648;51.130;13.978;2023-03-01T14:04:55;27.02;;;17.65;;
19030;SDS011;9648;51.130;13.978;2023-03-01T14:07:25;27.73;;;18.42;;
19030;SDS011;9648;51.130;13.978;2023-03-01T14:09:55;26.13;;;17.55;;
19030;SDS011;9648;51.130;13.978;2023-03-01T14:12:32;24.27;;;16.10;;
19030;SDS011;9648;51.130;13.978;2023-03-01T14:15:06;33.70;;;17.77;;
19030;SDS011;9648;51.130;13.978;2023-03-01T14:17:44;29.25;;;18.13;;
19030;SDS011;9648;51.130;13.978;2023-03-01T14:20:19;27.88;;;17.85;;
19030;SDS011;9648;51.130;13.978;2023-03-01T14:22:49;26.35;;;17.40;;
19030;SDS011;9648;51.130;13.978;2023-03-01T14:25:20;25.05;;;16.95;;
19030;SDS011;9648;51.130;13.978;2023-03-01T14:27:56;25.85;;;17.20;;
19030;SDS011;9648;51.130;13.978;2023-03-01T14:30:26;26.40;;;17.27;;
19030;SDS011;9648;51.130;13.978;2023-03-01T14:32:58;25.23;;;16.67;;
19030;SDS011;9648;51.130;13.978;2023-03-01T14:35:27;26.23;;;17.00;;
19030;SDS011;9648;51.130;13.978;2023-03-01T14:37:57;25.90;;;16.73;;
19030;SDS011;9648;51.130;13.978;2023-03-01T14:40:25;26.88;;;17.02;;
19030;SDS011;9648;51.130;13.978;2023-03-01T14:42:54;25.42;;;17.05;;
19030;SDS011;9648;51.130;13.978;2023-03-01T14:45:23;26.08;;;16.48;;
19030;SDS011;9648;51.130;13.978;2023-03-01T14:47:51;23.13;;;15.17;;
19030;SDS011;9648;51.130;13.978;2023-03-01T14:50:21;24.52;;;16.58;;
19030;SDS011;9648;51.130;13.978;2023-03-01T14:52:51;23.73;;;15.70;;